createdAt,value
2022-12-22T00:00:17.440Z,7.614746
2022-12-22T00:03:42.868Z,7.53418
2022-12-22T00:07:08.003Z,7.524109
2022-12-22T00:10:33.242Z,7.493896
2022-12-22T00:13:58.539Z,7.453613
2022-12-22T00:17:23.803Z,7.433472
2022-12-22T00:20:49.042Z,7.403259
2022-12-22T00:24:14.335Z,7.433472
2022-12-22T00:27:43.845Z,7.393188
2022-12-22T00:31:04.950Z,7.433472
2022-12-22T00:34:32.564Z,7.403259
2022-12-22T00:37:55.370Z,7.352905
2022-12-22T00:41:20.688Z,7.312622
2022-12-22T00:44:45.940Z,7.272339
2022-12-22T00:48:11.192Z,7.171631
2022-12-22T00:51:36.471Z,7.101135
2022-12-22T00:55:01.703Z,7.03064
2022-12-22T00:58:26.966Z,6.940002
2022-12-22T01:01:52.265Z,6.879578
2022-12-22T01:05:17.487Z,6.839294
2022-12-22T01:08:42.749Z,6.839294
2022-12-22T01:12:07.976Z,6.78894
2022-12-22T01:15:33.203Z,6.839294
2022-12-22T01:18:58.436Z,6.768799
2022-12-22T01:22:23.714Z,6.768799
2022-12-22T01:25:48.945Z,6.78894
2022-12-22T01:29:14.217Z,6.799011
2022-12-22T01:32:39.458Z,6.839294
2022-12-22T01:36:04.698Z,6.849365
2022-12-22T01:39:29.971Z,6.839294
2022-12-22T01:42:55.199Z,6.869507
2022-12-22T01:46:20.494Z,6.869507
2022-12-22T01:49:45.674Z,6.809082
2022-12-22T01:53:14.831Z,6.758728
2022-12-22T01:56:36.195Z,6.799011
2022-12-22T02:00:01.486Z,6.758728
2022-12-22T02:03:26.755Z,6.708374
2022-12-22T02:06:56.380Z,6.637878
2022-12-22T02:10:17.131Z,6.637878
2022-12-22T02:13:42.409Z,6.698303
2022-12-22T02:17:07.603Z,6.65802
2022-12-22T02:20:32.856Z,6.607666
2022-12-22T02:23:58.109Z,6.587524
2022-12-22T02:27:23.361Z,6.587524
2022-12-22T02:30:48.684Z,6.587524
2022-12-22T02:34:13.842Z,6.65802
2022-12-22T02:37:39.060Z,6.668091
2022-12-22T02:41:04.306Z,6.668091
2022-12-22T02:44:29.537Z,6.637878
2022-12-22T02:47:54.808Z,6.637878
2022-12-22T02:51:20.038Z,6.65802
2022-12-22T02:54:45.257Z,6.557312
2022-12-22T02:58:10.507Z,6.506958
2022-12-22T03:01:35.887Z,6.436462
2022-12-22T03:05:01.004Z,6.456604
2022-12-22T03:08:26.221Z,6.396179
2022-12-22T03:11:51.460Z,6.365967
2022-12-22T03:15:16.694Z,6.376038
2022-12-22T03:18:41.920Z,6.396179
2022-12-22T03:22:07.194Z,6.305542
2022-12-22T03:25:32.385Z,6.27533
2022-12-22T03:28:57.652Z,6.214905
2022-12-22T03:32:22.870Z,6.295471
2022-12-22T03:35:48.121Z,6.245117
2022-12-22T03:39:13.416Z,6.245117
2022-12-22T03:42:38.612Z,6.265259
2022-12-22T03:46:03.860Z,6.245117
2022-12-22T03:49:29.116Z,6.224976
2022-12-22T03:52:54.371Z,6.224976
2022-12-22T03:56:19.622Z,6.245117
2022-12-22T03:59:44.816Z,6.27533
2022-12-22T04:03:10.209Z,6.245117
2022-12-22T04:06:35.304Z,6.214905
2022-12-22T04:10:00.505Z,6.174622
2022-12-22T04:13:25.814Z,6.194763
2022-12-22T04:16:51.035Z,6.174622
2022-12-22T04:20:16.228Z,6.174622
2022-12-22T04:23:41.469Z,6.184692
2022-12-22T04:27:06.692Z,6.124268
2022-12-22T04:30:31.973Z,6.124268
2022-12-22T04:33:57.152Z,6.144409
2022-12-22T04:37:22.387Z,6.043701
2022-12-22T04:40:47.616Z,6.03363
2022-12-22T04:44:12.836Z,6.03363
2022-12-22T04:47:38.106Z,6.043701
2022-12-22T04:51:03.309Z,6.003418
2022-12-22T04:54:28.571Z,5.993347
2022-12-22T04:57:53.810Z,5.993347
2022-12-22T05:01:19.190Z,6.083984
2022-12-22T05:04:44.315Z,6.013489
2022-12-22T05:08:09.516Z,6.083984
2022-12-22T05:11:34.768Z,6.03363
2022-12-22T05:15:00.009Z,6.114197
2022-12-22T05:18:25.252Z,6.15448
2022-12-22T05:21:50.532Z,6.15448
2022-12-22T05:25:15.690Z,6.15448
2022-12-22T05:28:40.879Z,6.184692
2022-12-22T05:32:06.953Z,6.194763
2022-12-22T05:35:32.153Z,6.245117
2022-12-22T05:38:57.385Z,6.245117
2022-12-22T05:42:22.703Z,6.325684
2022-12-22T05:45:48.026Z,6.27533
2022-12-22T05:49:13.242Z,6.295471
2022-12-22T05:52:38.505Z,6.325684
2022-12-22T05:56:03.795Z,6.335754
2022-12-22T05:59:29.088Z,6.365967
2022-12-22T06:02:54.494Z,6.40625
2022-12-22T06:06:19.707Z,6.436462
2022-12-22T06:09:44.983Z,6.40625
2022-12-22T06:13:10.336Z,6.456604
2022-12-22T06:16:35.716Z,6.486816
2022-12-22T06:20:00.952Z,6.53717
2022-12-22T06:23:26.236Z,6.637878
2022-12-22T06:26:51.569Z,6.668091
2022-12-22T06:30:16.852Z,6.728516
2022-12-22T06:33:42.107Z,6.768799
2022-12-22T06:37:07.423Z,6.809082
2022-12-22T06:40:32.764Z,6.889648
2022-12-22T06:43:58.032Z,6.90979
2022-12-22T06:47:23.346Z,6.90979
2022-12-22T06:50:48.547Z,6.970215
2022-12-22T06:54:13.836Z,7.020569
2022-12-22T06:57:39.078Z,7.03064
2022-12-22T07:01:04.304Z,7.020569
2022-12-22T07:04:29.613Z,7.03064
2022-12-22T07:07:54.867Z,7.050781
2022-12-22T07:11:20.134Z,7.050781
2022-12-22T07:14:45.447Z,7.070923
2022-12-22T07:18:10.700Z,7.121277
2022-12-22T07:21:36.027Z,7.091064
2022-12-22T07:25:01.322Z,7.171631
2022-12-22T07:28:26.624Z,7.252197
2022-12-22T07:31:52.007Z,7.28241
2022-12-22T07:35:17.284Z,7.28241
2022-12-22T07:38:42.599Z,7.302551
2022-12-22T07:42:07.865Z,7.302551
2022-12-22T07:45:33.127Z,7.252197
2022-12-22T07:48:58.408Z,7.312622
2022-12-22T07:52:23.680Z,7.352905
2022-12-22T07:55:48.996Z,7.373047
2022-12-22T07:59:14.285Z,7.423401
2022-12-22T08:02:39.827Z,7.393188
2022-12-22T08:06:04.855Z,7.352905
2022-12-22T08:09:30.151Z,7.393188
2022-12-22T08:12:55.641Z,7.453613
2022-12-22T08:16:20.758Z,7.463684
2022-12-22T08:19:46.056Z,7.483826
2022-12-22T08:23:11.333Z,7.493896
2022-12-22T08:26:36.610Z,7.524109
2022-12-22T08:30:01.943Z,7.584534
2022-12-22T08:33:27.254Z,7.604675
2022-12-22T08:36:52.544Z,7.614746
2022-12-22T08:40:17.852Z,7.715454
2022-12-22T08:43:43.080Z,7.78595
2022-12-22T08:47:13.126Z,7.856445
2022-12-22T08:50:33.695Z,7.896729
2022-12-22T08:54:06.904Z,7.896729
2022-12-22T08:57:24.297Z,7.896729
2022-12-22T09:00:49.644Z,7.896729
2022-12-22T09:04:14.880Z,7.926941
2022-12-22T09:07:40.164Z,7.997437
2022-12-22T09:11:05.455Z,7.997437
2022-12-22T09:14:30.740Z,8.078003
2022-12-22T09:17:55.974Z,8.108215
2022-12-22T09:21:21.285Z,8.148499
2022-12-22T09:24:46.536Z,8.148499
2022-12-22T09:28:11.788Z,8.188782
2022-12-22T09:31:37.179Z,8.188782
2022-12-22T09:35:02.362Z,8.188782
2022-12-22T09:38:27.664Z,8.198853
2022-12-22T09:41:52.886Z,8.229065
2022-12-22T09:45:18.156Z,8.188782
2022-12-22T09:48:43.441Z,8.198853
2022-12-22T09:52:08.682Z,8.148499
2022-12-22T09:55:33.997Z,8.108215
2022-12-22T09:58:59.222Z,8.178711
2022-12-22T10:02:24.639Z,8.188782
2022-12-22T10:05:49.859Z,8.178711
2022-12-22T10:09:45.954Z,8.198853
2022-12-22T10:12:40.463Z,8.158569
2022-12-22T10:16:05.634Z,8.158569
2022-12-22T10:19:30.947Z,8.158569
2022-12-22T10:22:56.216Z,8.148499
2022-12-22T10:26:30.656Z,8.118286
2022-12-22T10:29:46.820Z,8.158569
2022-12-22T10:33:12.258Z,8.148499
2022-12-22T10:36:37.596Z,8.148499
2022-12-22T10:40:02.859Z,8.178711
2022-12-22T10:43:28.155Z,8.188782
2022-12-22T10:46:53.453Z,8.198853
2022-12-22T10:50:18.666Z,8.229065
2022-12-22T10:53:43.947Z,8.279419
2022-12-22T10:57:09.185Z,8.299561
2022-12-22T11:00:34.440Z,8.279419
2022-12-22T11:03:59.788Z,8.259277
2022-12-22T11:07:24.963Z,8.259277
2022-12-22T11:10:50.225Z,8.28949
2022-12-22T11:14:15.488Z,8.259277
2022-12-22T11:17:40.733Z,8.28949
2022-12-22T11:21:05.998Z,8.28949
2022-12-22T11:24:31.238Z,8.400269
2022-12-22T11:27:56.514Z,8.410339
2022-12-22T11:31:21.870Z,8.370056
2022-12-22T11:34:47.029Z,8.440552
2022-12-22T11:38:22.052Z,8.450623
2022-12-22T11:41:50.593Z,8.470764
2022-12-22T11:45:15.825Z,8.410339
2022-12-22T11:48:42.818Z,8.470764
2022-12-22T11:52:08.806Z,8.450623
2022-12-22T11:55:34.035Z,8.380127
2022-12-22T11:58:59.524Z,8.370056
2022-12-22T12:02:24.869Z,8.370056
2022-12-22T12:05:50.017Z,8.359985
2022-12-22T12:09:15.246Z,8.339844
2022-12-22T12:12:40.611Z,8.329773
2022-12-22T12:16:05.950Z,8.370056
2022-12-22T12:19:31.226Z,8.380127
2022-12-22T12:22:56.516Z,8.430481
2022-12-22T12:26:21.773Z,8.480835
2022-12-22T12:30:00.374Z,8.500977
2022-12-22T12:33:12.362Z,8.500977
2022-12-22T12:36:37.650Z,8.531189
2022-12-22T12:40:02.967Z,8.480835
2022-12-22T12:43:28.279Z,8.450623
2022-12-22T12:46:53.644Z,8.440552
2022-12-22T12:50:18.840Z,8.450623
2022-12-22T12:53:44.167Z,8.380127
2022-12-22T12:57:09.415Z,8.400269
2022-12-22T13:00:34.923Z,8.400269
2022-12-22T13:04:03.420Z,8.400269
2022-12-22T13:07:25.387Z,8.380127
2022-12-22T13:10:50.657Z,8.370056
2022-12-22T13:14:15.939Z,8.359985
2022-12-22T13:17:41.266Z,8.299561
2022-12-22T13:21:42.327Z,8.28949
2022-12-22T13:24:32.117Z,8.279419
2022-12-22T13:27:57.075Z,8.229065
2022-12-22T13:31:22.450Z,8.229065
2022-12-22T13:35:20.536Z,8.198853
2022-12-22T13:38:13.059Z,8.249207
2022-12-22T13:41:38.323Z,8.259277
2022-12-22T13:45:03.628Z,8.229065
2022-12-22T13:48:28.917Z,8.218994
2022-12-22T13:51:55.467Z,8.218994
2022-12-22T13:55:19.597Z,8.229065
2022-12-22T13:58:44.846Z,8.259277
2022-12-22T14:02:10.438Z,8.279419
2022-12-22T14:05:35.604Z,8.329773
2022-12-22T14:09:00.962Z,8.380127
2022-12-22T14:12:26.228Z,8.370056
2022-12-22T14:15:51.652Z,8.370056
2022-12-22T14:19:16.885Z,8.28949
2022-12-22T14:22:42.218Z,8.299561
2022-12-22T14:26:07.580Z,8.299561
2022-12-22T14:29:32.895Z,8.299561
2022-12-22T15:05:46.184Z,8.198853
2022-12-22T15:09:11.429Z,8.118286
2022-12-22T15:12:36.682Z,8.198853
2022-12-22T15:16:01.937Z,8.148499
2022-12-22T15:19:27.211Z,8.118286
2022-12-22T15:22:52.621Z,8.067932
2022-12-22T15:26:17.747Z,8.098145
2022-12-22T15:29:43.017Z,8.067932
2022-12-22T15:33:08.272Z,8.03772
2022-12-22T15:36:33.591Z,8.017578
2022-12-22T15:39:58.915Z,8.047791
2022-12-22T15:43:56.306Z,8.017578
2022-12-22T15:46:49.190Z,8.017578
2022-12-22T15:50:14.410Z,8.098145
2022-12-22T15:53:39.648Z,8.108215
2022-12-22T15:57:04.981Z,8.098145
2022-12-22T16:00:30.017Z,8.108215
2022-12-22T16:03:55.242Z,8.067932
2022-12-22T16:07:20.342Z,8.03772
2022-12-22T16:10:45.527Z,7.977295
2022-12-22T16:14:10.749Z,7.866516
2022-12-22T16:17:35.909Z,7.886658
2022-12-22T16:21:04.256Z,7.826233
2022-12-22T16:25:43.536Z,7.826233
2022-12-22T16:29:15.476Z,7.816162
2022-12-22T16:32:40.604Z,7.78595
2022-12-22T16:36:05.800Z,7.826233
2022-12-22T16:39:31.003Z,7.78595
2022-12-22T16:47:33.685Z,7.78595
2022-12-22T16:50:58.869Z,7.715454
2022-12-22T16:54:24.090Z,7.715454
2022-12-22T16:57:49.266Z,7.675171
2022-12-22T17:01:14.476Z,7.604675
2022-12-22T17:04:39.696Z,7.604675
2022-12-22T17:08:04.903Z,7.644958
2022-12-22T17:11:30.089Z,7.604675
2022-12-22T17:14:55.263Z,7.634888
2022-12-22T17:18:20.485Z,7.53418
2022-12-22T17:21:46.060Z,7.483826
2022-12-22T17:25:11.217Z,7.433472
2022-12-22T17:28:36.403Z,7.433472
2022-12-22T17:32:01.612Z,7.453613
2022-12-22T17:35:26.871Z,7.483826
2022-12-22T17:38:52.083Z,7.524109
2022-12-22T17:42:17.260Z,7.53418
2022-12-22T17:45:42.444Z,7.503967
2022-12-22T17:49:07.656Z,7.463684
2022-12-22T17:52:35.264Z,7.453613
2022-12-22T17:56:09.505Z,7.393188
2022-12-22T17:59:26.558Z,7.342834
2022-12-22T18:02:51.921Z,7.252197
2022-12-22T18:06:18.135Z,7.232056
2022-12-22T18:09:42.228Z,7.201843
2022-12-22T18:13:08.159Z,7.171631
2022-12-22T18:16:33.408Z,7.151489
2022-12-22T18:19:58.588Z,7.16156
2022-12-22T18:23:24.153Z,7.171631
2022-12-22T18:26:49.406Z,7.242126
2022-12-22T18:30:15.349Z,7.272339
2022-12-22T18:34:13.941Z,7.352905
2022-12-22T18:37:39.146Z,7.403259
2022-12-22T18:41:04.324Z,7.463684
2022-12-22T18:44:29.534Z,7.554321
2022-12-22T18:47:54.795Z,7.493896
2022-12-22T18:51:19.974Z,7.524109
2022-12-22T18:54:45.192Z,7.483826
2022-12-22T18:58:10.418Z,7.503967
2022-12-22T19:01:35.765Z,7.554321
2022-12-22T19:05:00.987Z,7.614746
2022-12-22T19:08:26.211Z,7.675171
2022-12-22T19:11:51.456Z,7.6651
2022-12-22T19:15:16.667Z,7.685242
2022-12-22T19:18:41.902Z,7.705383
2022-12-22T19:22:07.181Z,7.685242
2022-12-22T19:25:32.376Z,7.644958
2022-12-22T19:28:57.604Z,7.6651
2022-12-22T19:32:23.773Z,7.644958
2022-12-22T19:35:48.937Z,7.604675
2022-12-22T19:39:14.299Z,7.6651
2022-12-22T19:42:39.519Z,7.6651
2022-12-22T19:46:04.789Z,7.675171
2022-12-22T19:49:29.985Z,7.675171
2022-12-22T19:52:55.224Z,7.604675
2022-12-22T19:56:20.451Z,7.634888
2022-12-22T19:59:45.751Z,7.604675
2022-12-22T20:03:11.049Z,7.554321
2022-12-22T20:06:36.151Z,7.574463
2022-12-22T20:10:01.396Z,7.574463
2022-12-22T20:13:26.636Z,7.604675
2022-12-22T20:16:51.946Z,7.614746
2022-12-22T20:20:17.132Z,7.53418
2022-12-22T20:23:42.395Z,7.503967
2022-12-22T20:27:07.623Z,7.574463
2022-12-22T20:30:32.892Z,7.614746
2022-12-22T20:33:58.109Z,7.614746
2022-12-22T20:37:24.254Z,7.604675
2022-12-22T20:40:49.487Z,7.604675
2022-12-22T20:44:14.783Z,7.524109
2022-12-22T20:47:40.109Z,7.554321
2022-12-22T20:51:05.288Z,7.554321
2022-12-22T20:54:30.464Z,7.584534
2022-12-22T20:57:55.667Z,7.584534
2022-12-22T21:01:20.893Z,7.614746
2022-12-22T21:04:46.034Z,7.614746
2022-12-22T21:08:15.111Z,7.6651
2022-12-22T21:11:36.343Z,7.675171
2022-12-22T21:15:01.494Z,7.705383
2022-12-22T21:18:26.707Z,7.765808
2022-12-22T21:21:51.898Z,7.745667
2022-12-22T21:25:17.042Z,7.705383
2022-12-22T21:28:42.217Z,7.745667
2022-12-22T21:32:07.400Z,7.745667
2022-12-22T21:35:32.547Z,7.685242
2022-12-22T21:38:57.778Z,7.675171
2022-12-22T21:42:22.922Z,7.614746
2022-12-22T21:45:48.092Z,7.584534
2022-12-22T21:49:13.244Z,7.574463
2022-12-22T21:52:38.433Z,7.634888
2022-12-22T21:56:03.623Z,7.614746
2022-12-22T21:59:28.782Z,7.634888
2022-12-22T22:02:54.121Z,7.644958
2022-12-22T22:06:19.145Z,7.644958
2022-12-22T22:09:44.331Z,7.675171
2022-12-22T22:13:09.548Z,7.675171
2022-12-22T22:16:34.694Z,7.675171
2022-12-22T22:19:59.856Z,7.735596
2022-12-22T22:23:25.070Z,7.78595
2022-12-22T22:26:50.245Z,7.886658
2022-12-22T22:30:15.418Z,7.91687
2022-12-22T22:33:40.565Z,7.967224
2022-12-22T22:37:05.732Z,8.017578
2022-12-22T22:40:30.893Z,8.017578
2022-12-22T22:43:56.065Z,8.007507
2022-12-22T22:47:21.294Z,8.03772
2022-12-22T22:50:46.460Z,8.03772
2022-12-22T22:54:11.631Z,8.098145
2022-12-22T22:57:36.781Z,8.03772
2022-12-22T23:01:01.940Z,8.017578
2022-12-22T23:04:27.212Z,8.047791
2022-12-22T23:07:52.321Z,8.098145
2022-12-22T23:11:17.477Z,8.078003
2022-12-22T23:14:42.702Z,8.108215
2022-12-22T23:18:07.815Z,8.067932
2022-12-22T23:21:33.060Z,8.03772
2022-12-22T23:24:58.229Z,7.967224
2022-12-22T23:28:23.391Z,7.967224
2022-12-22T23:31:48.663Z,7.977295
2022-12-22T23:35:13.729Z,7.997437
2022-12-22T23:38:38.939Z,8.017578
2022-12-22T23:42:04.089Z,8.017578
2022-12-22T23:45:29.256Z,8.03772
2022-12-22T23:48:54.443Z,7.977295
2022-12-22T23:52:19.634Z,7.977295
2022-12-22T23:55:44.824Z,7.997437
2022-12-22T23:59:09.987Z,7.967224
